Airfield :
LOGIN :

Register | Disclaimer

   EN    FR    IT 

 










Legend :    VFR   Marginal VFR   IFR   Intensive IFR   Very Intensive IFR
Visi :
Ceiling :
>= 8 km
>= 3000ft
5 to 8 km
1000 to 3000 ft
1500m to 5 km
500 to 1000 ft
800 to 1500m
200 to 500 ft
< 800m
< 200 ft
Symbols :   Thunderstorms  Fog  Heavy snow  Heavy precipitations  Wind > 20 kt
SIGMETs :     Misc.  Thunderstorms  Icing  Turbulence  Mountain Waves  Volcanic Ashes







- Airport Elevation : 468 ft
- IATA code : GRO


LEGE - Girona Costa Brava

CURRENT METAR :
  • 170800Z 01006KT 340V040 9999 SCT024 BKN039 12/12 Q1019

EXPIRED METARs :
  • 170730Z 01003KT 320V050 9999 SCT044 BKN050 12/12 Q1019
  • 170700Z 01004KT 330V050 9999 SCT044 BKN050 12/12 Q1019
  • 170630Z 01003KT 330V030 9999 BKN033 12/12 Q1019
  • 170600Z 03004KT 9999 FEW028 BKN060 12/12 Q1019
  • 170530Z 34003KT 280V030 9999 FEW028 BKN060 12/11 Q1019

TAF TAF LEGE
Valid from the 17 at 06:00 until the 18 at 06:00 UTC


170500Z 1706/1806 36005KT 7000 FEW010 BKN030 TX17/1713Z TN11/1706Z
PROB40
TEMPO 1710/1806 4000 SHRA FEW025TCU BKN030
No reported NOTAMs for that airfield.



MET'MAP, your aeronautical weather chart ! - Copyright ORBIFLY December 2007 - Disclaimer

ORBIFLY MET'MAP TEAM :

Programming & Development : Alexandra Zaïnal
Concept & Development : Baudouin d'Aumeries
Co-Development & Prog : Marc-Olivier Méhu
Technical & hardware support : Manuel Goepfert

Contact : metmap@orbifly.com




SOURCES & CREDITS :

   NOAA